createdAt,value
2023-05-13T00:01:30.954Z,10.82
2023-05-13T00:03:59.809Z,10.08
2023-05-13T00:06:28.721Z,13.45
2023-05-13T00:08:57.472Z,11.97
2023-05-13T00:11:26.064Z,10.58
2023-05-13T00:13:54.660Z,12.40
2023-05-13T00:16:24.939Z,14.20
2023-05-13T00:18:53.714Z,14.33
2023-05-13T00:21:22.484Z,12.10
2023-05-13T00:23:51.139Z,16.95
2023-05-13T00:26:19.904Z,13.10
2023-05-13T00:28:48.546Z,13.10
2023-05-13T00:31:17.196Z,11.33
2023-05-13T00:33:46.312Z,14.93
2023-05-13T00:36:14.996Z,11.25
2023-05-13T00:38:44.177Z,14.20
2023-05-13T00:41:13.410Z,13.83
2023-05-13T00:43:42.005Z,13.15
2023-05-13T00:46:10.709Z,17.35
2023-05-13T00:48:39.815Z,13.62
2023-05-13T00:51:08.860Z,16.75
2023-05-13T00:53:38.088Z,13.75
2023-05-13T00:56:07.284Z,12.60
2023-05-13T00:58:45.854Z,16.80
2023-05-13T01:01:26.379Z,15.30
2023-05-13T01:04:01.284Z,15.10
2023-05-13T01:06:52.267Z,13.62
2023-05-13T01:09:58.107Z,17.50
2023-05-13T01:12:32.564Z,15.68
2023-05-13T01:15:10.252Z,19.27
2023-05-13T01:17:57.554Z,17.10
2023-05-13T01:20:29.360Z,18.40
2023-05-13T01:22:58.061Z,15.03
2023-05-13T01:25:26.689Z,14.68
2023-05-13T01:27:55.398Z,14.35
2023-05-13T01:30:24.441Z,14.75
2023-05-13T01:32:53.293Z,15.40
2023-05-13T01:35:24.017Z,13.78
2023-05-13T01:37:53.848Z,14.13
2023-05-13T01:40:32.534Z,16.50
2023-05-13T01:42:52.792Z,16.45
2023-05-13T01:45:21.421Z,15.60
2023-05-13T01:47:50.055Z,14.90
2023-05-13T01:50:18.921Z,14.85
2023-05-13T01:52:47.758Z,15.45
2023-05-13T01:55:16.419Z,18.10
2023-05-13T01:57:44.988Z,15.40
2023-05-13T02:00:14.401Z,16.55
2023-05-13T02:02:43.075Z,18.90
2023-05-13T02:05:11.690Z,16.65
2023-05-13T02:07:40.278Z,20.30
2023-05-13T02:10:09.209Z,18.77
2023-05-13T02:12:37.831Z,17.70
2023-05-13T02:15:06.970Z,17.95
2023-05-13T02:17:35.606Z,16.07
2023-05-13T02:20:04.486Z,17.05
2023-05-13T02:22:33.093Z,19.85
2023-05-13T02:25:03.183Z,16.62
2023-05-13T02:27:31.772Z,18.02
2023-05-13T02:30:00.486Z,19.70
2023-05-13T02:32:29.184Z,18.15
2023-05-13T02:34:58.022Z,17.40
2023-05-13T02:37:26.684Z,17.12
2023-05-13T02:39:55.338Z,19.40
2023-05-13T02:42:23.930Z,17.27
2023-05-13T02:44:52.503Z,18.25
2023-05-13T02:47:21.182Z,18.40
2023-05-13T02:49:49.834Z,19.25
2023-05-13T02:52:18.474Z,17.42
2023-05-13T02:54:47.041Z,18.90
2023-05-13T02:57:15.596Z,20.23
2023-05-13T02:59:44.187Z,18.95
2023-05-13T03:02:12.784Z,15.53
2023-05-13T03:04:41.541Z,16.52
2023-05-13T03:07:10.154Z,18.98
2023-05-13T03:09:42.217Z,15.85
2023-05-13T03:12:10.944Z,16.00
2023-05-13T03:14:40.118Z,16.95
2023-05-13T03:17:08.695Z,15.83
2023-05-13T03:19:39.156Z,22.60
2023-05-13T03:22:07.991Z,17.20
2023-05-13T03:24:36.583Z,21.17
2023-05-13T03:27:05.403Z,16.77
2023-05-13T03:29:33.963Z,18.00
2023-05-13T03:32:02.637Z,18.70
2023-05-13T03:34:31.232Z,19.48
2023-05-13T03:37:00.214Z,18.85
2023-05-13T03:39:28.772Z,23.57
2023-05-13T03:41:57.434Z,21.80
2023-05-13T03:44:26.017Z,16.52
2023-05-13T03:46:54.685Z,17.15
2023-05-13T03:49:25.305Z,19.07
2023-05-13T03:51:53.539Z,16.52
2023-05-13T03:54:22.145Z,19.77
2023-05-13T03:56:50.743Z,21.80
2023-05-13T03:59:19.339Z,22.02
2023-05-13T04:01:47.933Z,18.50
2023-05-13T04:04:16.544Z,20.60
2023-05-13T04:06:45.209Z,18.25
2023-05-13T04:09:13.790Z,19.15
2023-05-13T04:11:42.389Z,18.30
2023-05-13T04:14:11.059Z,18.45
2023-05-13T04:16:39.689Z,19.20
2023-05-13T04:19:08.553Z,18.50
2023-05-13T04:21:37.260Z,18.42
2023-05-13T04:24:06.782Z,18.62
2023-05-13T04:26:35.559Z,23.02
2023-05-13T04:29:04.152Z,17.37
2023-05-13T04:31:33.123Z,16.45
2023-05-13T04:34:01.724Z,19.77
2023-05-13T04:36:31.386Z,16.82
2023-05-13T04:38:59.993Z,20.60
2023-05-13T04:41:28.591Z,17.48
2023-05-13T04:43:57.183Z,18.95
2023-05-13T04:46:26.001Z,23.73
2023-05-13T04:48:54.793Z,20.65
2023-05-13T04:51:23.996Z,21.70
2023-05-13T04:53:55.821Z,19.25
2023-05-13T04:56:24.391Z,16.77
2023-05-13T04:58:53.062Z,14.58
2023-05-13T05:01:21.727Z,16.77
2023-05-13T05:03:50.409Z,15.70
2023-05-13T05:06:25.279Z,15.18
2023-05-13T05:08:53.828Z,18.50
2023-05-13T05:11:22.859Z,15.83
2023-05-13T05:13:51.860Z,17.52
2023-05-13T05:16:22.703Z,18.20
2023-05-13T05:18:51.422Z,19.35
2023-05-13T05:21:20.130Z,16.97
2023-05-13T05:23:48.893Z,16.00
2023-05-13T05:26:17.563Z,14.75
2023-05-13T05:28:47.067Z,18.92
2023-05-13T05:31:15.841Z,21.12
2023-05-13T05:33:44.883Z,20.08
2023-05-13T05:36:13.629Z,17.48
2023-05-13T05:38:42.444Z,22.62
2023-05-13T05:41:11.350Z,20.15
2023-05-13T05:43:39.940Z,18.87
2023-05-13T05:46:08.562Z,17.40
2023-05-13T05:48:37.267Z,18.82
2023-05-13T05:51:06.382Z,18.37
2023-05-13T05:53:37.892Z,17.48
2023-05-13T05:56:06.434Z,17.57
2023-05-13T05:58:35.951Z,18.42
2023-05-13T06:01:05.655Z,19.48
2023-05-13T06:03:34.355Z,19.15
2023-05-13T06:06:03.024Z,19.87
2023-05-13T06:08:31.621Z,21.23
2023-05-13T06:11:00.867Z,18.65
2023-05-13T06:13:31.380Z,18.52
2023-05-13T06:15:59.991Z,18.27
2023-05-13T06:18:28.553Z,17.05
2023-05-13T06:20:57.174Z,16.93
2023-05-13T06:23:25.846Z,17.67
2023-05-13T06:25:54.928Z,17.80
2023-05-13T06:28:23.591Z,21.45
2023-05-13T06:30:53.851Z,20.72
2023-05-13T06:33:22.678Z,21.50
2023-05-13T06:35:51.343Z,21.60
2023-05-13T06:38:19.957Z,18.48
2023-05-13T06:40:48.722Z,22.22
2023-05-13T06:43:18.116Z,19.77
2023-05-13T06:45:46.773Z,21.82
2023-05-13T06:48:16.180Z,18.20
2023-05-13T06:50:44.767Z,19.73
2023-05-13T06:53:13.654Z,18.55
2023-05-13T06:55:42.663Z,21.80
2023-05-13T06:58:11.846Z,17.65
2023-05-13T07:00:42.044Z,22.85
2023-05-13T07:03:10.669Z,21.10
2023-05-13T07:05:40.042Z,16.95
2023-05-13T07:08:08.783Z,15.58
2023-05-13T07:10:37.987Z,15.32
2023-05-13T07:13:07.371Z,17.60
2023-05-13T07:15:35.940Z,19.27
2023-05-13T07:18:04.711Z,16.50
2023-05-13T07:20:33.456Z,16.62
2023-05-13T07:23:02.037Z,16.85
2023-05-13T07:25:30.799Z,15.03
2023-05-13T07:27:59.441Z,16.60
2023-05-13T07:30:28.028Z,14.80
2023-05-13T07:32:56.793Z,12.43
2023-05-13T07:35:25.717Z,15.90
2023-05-13T07:37:54.299Z,14.98
2023-05-13T07:40:23.011Z,16.07
2023-05-13T07:42:51.919Z,17.17
2023-05-13T07:45:20.874Z,13.13
2023-05-13T07:47:49.750Z,15.63
2023-05-13T07:50:18.518Z,40.10
2023-05-13T07:52:48.994Z,16.70
2023-05-13T07:55:17.804Z,14.80
2023-05-13T07:57:46.420Z,14.98
2023-05-13T08:00:15.795Z,15.03
2023-05-13T08:02:44.973Z,16.50
2023-05-13T08:05:13.725Z,15.60
2023-05-13T08:07:42.321Z,16.77
2023-05-13T08:10:11.149Z,14.33
2023-05-13T08:12:40.439Z,14.20
2023-05-13T08:15:09.424Z,16.27
2023-05-13T08:17:38.212Z,16.57
2023-05-13T08:20:07.428Z,12.50
2023-05-13T08:22:36.001Z,13.18
2023-05-13T08:25:05.511Z,15.40
2023-05-13T08:27:35.671Z,15.20
2023-05-13T08:30:04.894Z,13.08
2023-05-13T08:32:33.613Z,14.70
2023-05-13T08:35:02.173Z,12.35
2023-05-13T08:37:30.750Z,14.43
2023-05-13T08:40:01.572Z,16.20
2023-05-13T08:42:32.044Z,12.95
2023-05-13T08:45:03.776Z,17.90
2023-05-13T08:47:53.900Z,19.80
2023-05-13T08:50:22.890Z,15.43
2023-05-13T08:52:56.324Z,14.07
2023-05-13T08:55:25.067Z,12.15
2023-05-13T08:57:54.709Z,13.50
2023-05-13T09:00:23.766Z,13.62
2023-05-13T09:02:52.719Z,16.27
2023-05-13T09:05:22.443Z,11.90
2023-05-13T09:07:53.117Z,17.07
2023-05-13T09:10:22.365Z,10.45
2023-05-13T09:12:55.538Z,17.10
2023-05-13T09:15:26.325Z,9.50
2023-05-13T09:18:04.294Z,8.80
2023-05-13T09:20:34.303Z,10.53
2023-05-13T09:23:04.421Z,9.65
2023-05-13T09:25:33.852Z,10.28
2023-05-13T09:28:03.976Z,10.08
2023-05-13T09:30:35.814Z,8.50
2023-05-13T09:33:13.612Z,7.53
2023-05-13T09:35:47.981Z,7.05
2023-05-13T09:38:21.647Z,9.00
2023-05-13T09:40:54.144Z,10.63
2023-05-13T09:43:24.668Z,7.08
2023-05-13T09:45:57.933Z,6.40
2023-05-13T09:48:29.120Z,8.45
2023-05-13T09:50:59.180Z,5.65
2023-05-13T09:53:29.039Z,7.30
2023-05-13T09:56:00.332Z,9.65
2023-05-13T09:58:30.760Z,9.43
2023-05-13T10:00:59.880Z,8.05
2023-05-13T10:03:29.850Z,7.25
2023-05-13T10:06:02.248Z,8.15
2023-05-13T10:08:31.098Z,5.90
2023-05-13T10:11:00.323Z,11.40
2023-05-13T10:13:30.745Z,11.43
2023-05-13T10:16:00.320Z,7.08
2023-05-13T10:18:29.616Z,5.58
2023-05-13T10:21:00.175Z,7.30
2023-05-13T10:23:30.151Z,6.80
2023-05-13T10:26:00.672Z,6.28
2023-05-13T10:28:29.399Z,5.65
2023-05-13T10:30:58.007Z,5.12
2023-05-13T10:33:29.385Z,7.50
2023-05-13T10:36:13.092Z,5.33
2023-05-13T10:39:01.434Z,4.97
2023-05-13T10:41:52.233Z,4.33
2023-05-13T10:44:21.438Z,5.35
2023-05-13T10:46:50.182Z,7.00
2023-05-13T10:49:18.744Z,5.58
2023-05-13T10:51:49.187Z,7.72
2023-05-13T10:54:22.191Z,8.03
2023-05-13T10:56:59.988Z,5.03
2023-05-13T10:59:30.670Z,4.92
2023-05-13T11:02:02.647Z,8.78
2023-05-13T11:04:31.191Z,4.05
2023-05-13T11:07:02.844Z,5.40
2023-05-13T11:09:32.319Z,5.07
2023-05-13T11:12:01.586Z,7.08
2023-05-13T11:14:31.990Z,5.33
2023-05-13T11:17:06.425Z,6.53
2023-05-13T11:19:37.433Z,5.97
2023-05-13T11:22:16.670Z,8.58
2023-05-13T11:25:23.238Z,6.12
2023-05-13T11:31:32.512Z,6.55
2023-05-13T11:34:32.173Z,6.53
2023-05-13T11:37:12.472Z,6.00
2023-05-13T11:42:27.356Z,9.00
2023-05-13T11:44:59.490Z,5.22
2023-05-13T11:47:45.220Z,8.00
2023-05-13T11:50:41.933Z,8.25
2023-05-13T11:53:14.041Z,8.75
2023-05-13T11:58:53.389Z,4.65
2023-05-13T12:04:34.144Z,5.03
2023-05-13T12:07:10.486Z,4.47
2023-05-13T12:09:40.914Z,4.50
2023-05-13T12:12:10.065Z,6.17
2023-05-13T12:14:39.066Z,4.10
2023-05-13T12:17:07.967Z,5.25
2023-05-13T12:19:37.574Z,4.65
2023-05-13T12:22:06.940Z,3.70
2023-05-13T12:24:35.578Z,3.70
2023-05-13T12:27:09.410Z,3.83
2023-05-13T12:29:43.818Z,4.05
2023-05-13T12:32:12.453Z,4.83
2023-05-13T12:34:41.118Z,4.33
2023-05-13T12:37:13.594Z,5.40
2023-05-13T12:39:43.006Z,4.72
2023-05-13T12:42:19.035Z,4.90
2023-05-13T12:44:49.408Z,4.05
2023-05-13T12:47:19.600Z,3.22
2023-05-13T12:49:59.005Z,4.95
2023-05-13T12:52:27.803Z,3.40
2023-05-13T12:54:56.402Z,6.10
2023-05-13T12:57:25.585Z,5.72
2023-05-13T12:59:54.195Z,4.95
2023-05-13T13:02:23.061Z,4.12
2023-05-13T13:04:51.817Z,3.17
2023-05-13T13:07:24.436Z,3.00
2023-05-13T13:09:57.833Z,6.12
2023-05-13T13:12:28.192Z,5.97
2023-05-13T13:14:57.711Z,5.90
2023-05-13T13:17:26.452Z,4.33
2023-05-13T13:19:55.229Z,4.90
2023-05-13T13:22:46.019Z,3.80
2023-05-13T13:25:16.326Z,5.95
2023-05-13T13:27:45.409Z,3.37
2023-05-13T13:30:14.749Z,4.80
2023-05-13T13:32:43.416Z,3.33
2023-05-13T13:35:12.105Z,3.08
2023-05-13T13:37:40.832Z,3.72
2023-05-13T13:40:10.348Z,5.45
2023-05-13T13:42:44.038Z,3.25
2023-05-13T13:45:10.479Z,3.30
2023-05-13T13:47:39.152Z,5.22
2023-05-13T13:50:08.070Z,3.47
2023-05-13T13:52:36.670Z,6.80
2023-05-13T13:55:05.840Z,5.62
2023-05-13T13:57:34.590Z,6.12
2023-05-13T14:00:05.842Z,3.25
2023-05-13T14:02:35.044Z,3.12
2023-05-13T14:05:07.036Z,3.95
2023-05-13T14:07:37.422Z,4.67
2023-05-13T14:10:10.136Z,3.35
2023-05-13T14:15:08.420Z,13.60
2023-05-13T14:17:37.121Z,3.02
2023-05-13T14:20:07.027Z,3.40
2023-05-13T14:22:35.919Z,5.90
2023-05-13T14:25:04.727Z,5.08
2023-05-13T14:27:34.978Z,7.92
2023-05-13T14:30:03.784Z,4.67
2023-05-13T14:32:32.430Z,4.50
2023-05-13T14:35:01.200Z,5.60
2023-05-13T14:37:29.831Z,3.72
2023-05-13T14:39:58.394Z,4.55
2023-05-13T14:42:27.050Z,5.12
2023-05-13T14:44:55.903Z,3.58
2023-05-13T14:47:24.749Z,5.80
2023-05-13T14:49:53.548Z,3.35
2023-05-13T14:52:22.448Z,7.65
2023-05-13T14:54:51.468Z,4.17
2023-05-13T14:57:21.322Z,3.92
2023-05-13T14:59:49.988Z,3.90
2023-05-13T15:02:18.585Z,4.30
2023-05-13T15:04:47.154Z,3.30
2023-05-13T15:07:17.113Z,5.05
2023-05-13T15:09:45.689Z,3.65
2023-05-13T15:12:14.303Z,4.03
2023-05-13T15:14:42.896Z,4.40
2023-05-13T15:17:14.037Z,4.70
2023-05-13T15:19:43.403Z,3.40
2023-05-13T15:22:12.608Z,4.80
2023-05-13T15:24:42.189Z,4.17
2023-05-13T15:27:11.231Z,4.45
2023-05-13T15:29:39.884Z,4.35
2023-05-13T15:32:09.087Z,5.60
2023-05-13T15:34:37.690Z,4.67
2023-05-13T15:37:06.360Z,3.17
2023-05-13T15:39:34.999Z,3.65
2023-05-13T15:42:03.875Z,3.10
2023-05-13T15:44:32.570Z,5.12
2023-05-13T15:47:02.662Z,4.42
2023-05-13T15:49:31.267Z,5.70
2023-05-13T15:52:00.564Z,4.28
2023-05-13T15:54:29.614Z,4.60
2023-05-13T15:56:59.072Z,5.97
2023-05-13T15:59:27.712Z,6.83
2023-05-13T16:01:56.498Z,5.12
2023-05-13T16:04:28.973Z,5.87
2023-05-13T16:06:57.708Z,6.20
2023-05-13T16:09:28.591Z,6.53
2023-05-13T16:11:58.003Z,6.47
2023-05-13T16:14:33.731Z,5.30
2023-05-13T16:17:02.137Z,7.45
2023-05-13T16:19:31.170Z,8.78
2023-05-13T16:22:00.198Z,6.70
2023-05-13T16:24:30.622Z,6.22
2023-05-13T16:26:59.253Z,10.00
2023-05-13T16:29:41.834Z,6.95
2023-05-13T16:32:18.899Z,7.05
2023-05-13T16:34:47.945Z,8.25
2023-05-13T16:37:16.766Z,6.05
2023-05-13T16:39:45.897Z,7.50
2023-05-13T16:42:14.602Z,5.55
2023-05-13T16:44:43.325Z,5.83
2023-05-13T16:47:12.669Z,5.45
2023-05-13T16:49:43.234Z,5.95
2023-05-13T16:52:12.318Z,6.17
2023-05-13T16:54:41.855Z,6.70
2023-05-13T16:57:10.812Z,8.30
2023-05-13T16:59:40.703Z,6.08
2023-05-13T17:02:10.107Z,5.97
2023-05-13T17:04:40.537Z,7.95
2023-05-13T17:07:11.795Z,6.75
2023-05-13T17:09:40.887Z,6.75
2023-05-13T17:12:09.755Z,6.50
2023-05-13T17:14:38.370Z,8.50
2023-05-13T17:17:07.114Z,7.33
2023-05-13T17:19:35.884Z,7.40
2023-05-13T17:22:04.558Z,6.37
2023-05-13T17:24:33.176Z,6.05
2023-05-13T17:27:01.822Z,8.13
2023-05-13T17:29:31.439Z,6.70
2023-05-13T17:32:00.207Z,8.30
2023-05-13T17:34:28.864Z,8.15
2023-05-13T17:36:57.496Z,6.92
2023-05-13T17:39:26.269Z,6.40
2023-05-13T17:41:54.935Z,7.62
2023-05-13T17:44:23.883Z,8.68
2023-05-13T17:46:52.537Z,7.00
2023-05-13T17:49:21.709Z,6.85
2023-05-13T17:51:50.328Z,7.05
2023-05-13T17:54:19.003Z,6.70
2023-05-13T17:56:47.612Z,7.53
2023-05-13T17:59:16.227Z,5.97
2023-05-13T18:01:45.043Z,8.23
2023-05-13T18:04:13.802Z,9.00
2023-05-13T18:06:42.501Z,6.35
2023-05-13T18:09:11.353Z,8.40
2023-05-13T18:11:39.934Z,6.45
2023-05-13T18:14:08.557Z,5.35
2023-05-13T18:16:37.269Z,7.40
2023-05-13T18:19:06.838Z,7.50
2023-05-13T18:21:35.610Z,7.28
2023-05-13T18:24:04.275Z,5.80
2023-05-13T18:26:32.893Z,7.55
2023-05-13T18:29:01.494Z,5.80
2023-05-13T18:31:30.182Z,7.42
2023-05-13T18:33:58.801Z,7.75
2023-05-13T18:36:27.556Z,9.20
2023-05-13T18:38:56.212Z,6.72
2023-05-13T18:41:24.878Z,6.92
2023-05-13T18:43:53.471Z,7.67
2023-05-13T18:46:22.775Z,6.53
2023-05-13T18:48:51.412Z,6.62
2023-05-13T18:51:21.004Z,6.80
2023-05-13T18:53:49.562Z,10.08
2023-05-13T18:56:18.335Z,7.97
2023-05-13T18:58:47.172Z,12.33
2023-05-13T19:01:16.018Z,7.08
2023-05-13T19:03:44.757Z,6.42
2023-05-13T19:06:13.513Z,7.22
2023-05-13T19:08:42.339Z,6.70
2023-05-13T19:11:11.667Z,7.40
2023-05-13T19:16:10.585Z,8.13
2023-05-13T19:18:39.220Z,8.60
2023-05-13T19:21:07.784Z,8.50
2023-05-13T19:23:38.252Z,7.10
2023-05-13T19:26:07.307Z,7.45
2023-05-13T19:28:37.707Z,7.78
2023-05-13T19:31:06.635Z,7.53
2023-05-13T19:33:37.186Z,8.65
2023-05-13T19:36:06.765Z,10.60
2023-05-13T19:38:36.296Z,6.75
2023-05-13T19:41:04.928Z,7.15
2023-05-13T19:43:33.518Z,6.33
2023-05-13T19:46:02.115Z,7.17
2023-05-13T19:48:30.769Z,11.03
2023-05-13T19:50:59.356Z,8.98
2023-05-13T19:53:27.958Z,8.73
2023-05-13T19:55:56.721Z,8.40
2023-05-13T19:58:25.489Z,7.92
2023-05-13T20:00:54.305Z,7.03
2023-05-13T20:03:23.016Z,8.28
2023-05-13T20:05:53.817Z,8.70
2023-05-13T20:08:22.881Z,10.63
2023-05-13T20:10:51.635Z,9.95
2023-05-13T20:13:20.300Z,7.92
2023-05-13T20:15:48.911Z,9.75
2023-05-13T20:18:17.566Z,10.08
2023-05-13T20:20:46.995Z,8.40
2023-05-13T20:23:15.638Z,10.90
2023-05-13T20:25:46.554Z,9.45
2023-05-13T20:28:15.209Z,10.00
2023-05-13T20:30:43.954Z,12.33
2023-05-13T20:33:13.781Z,9.38
2023-05-13T20:35:42.390Z,9.40
2023-05-13T20:38:11.138Z,10.18
2023-05-13T20:40:40.808Z,10.08
2023-05-13T20:43:09.470Z,13.15
2023-05-13T20:45:39.779Z,11.78
2023-05-13T20:48:09.195Z,10.40
2023-05-13T20:50:37.976Z,11.97
2023-05-13T20:53:07.129Z,13.62
2023-05-13T20:55:35.769Z,11.10
2023-05-13T20:58:04.433Z,10.68
2023-05-13T21:00:33.118Z,15.10
2023-05-13T21:03:01.800Z,12.98
2023-05-13T21:05:30.573Z,9.60
2023-05-13T21:07:59.178Z,12.40
2023-05-13T21:10:27.793Z,9.18
2023-05-13T21:12:56.383Z,11.08
2023-05-13T21:15:25.118Z,10.43
2023-05-13T21:17:54.362Z,12.53
2023-05-13T21:20:23.277Z,12.53
2023-05-13T21:22:52.063Z,10.70
2023-05-13T21:25:20.662Z,13.48
2023-05-13T21:27:50.430Z,11.28
2023-05-13T21:30:19.115Z,11.38
2023-05-13T21:32:47.760Z,14.30
2023-05-13T21:35:16.509Z,11.25
2023-05-13T21:37:47.219Z,12.65
2023-05-13T21:40:15.710Z,15.93
2023-05-13T21:42:44.333Z,14.07
2023-05-13T21:45:16.263Z,14.00
2023-05-13T21:47:44.969Z,17.23
2023-05-13T21:50:13.605Z,18.52
2023-05-13T21:52:42.220Z,14.55
2023-05-13T21:55:12.220Z,16.30
2023-05-13T21:57:40.794Z,17.15
2023-05-13T22:00:14.492Z,14.47
2023-05-13T22:02:43.661Z,14.25
2023-05-13T22:05:12.856Z,13.38
2023-05-13T22:07:41.523Z,14.47
2023-05-13T22:10:11.420Z,12.70
2023-05-13T22:12:40.022Z,17.23
2023-05-13T22:15:09.250Z,14.38
2023-05-13T22:17:38.004Z,15.85
2023-05-13T22:20:07.618Z,12.98
2023-05-13T22:22:36.207Z,13.30
2023-05-13T22:25:04.930Z,14.33
2023-05-13T22:27:33.526Z,15.55
2023-05-13T22:30:02.115Z,16.17
2023-05-13T22:32:30.890Z,12.30
2023-05-13T22:34:59.484Z,13.65
2023-05-13T22:37:28.092Z,14.38
2023-05-13T22:39:56.678Z,12.45
2023-05-13T22:42:25.743Z,12.28
2023-05-13T22:44:54.366Z,16.32
2023-05-13T22:47:23.063Z,14.55
2023-05-13T22:49:51.619Z,14.18
2023-05-13T22:52:20.433Z,16.75
2023-05-13T22:54:49.095Z,12.40
2023-05-13T22:57:17.714Z,14.15
2023-05-13T22:59:46.292Z,14.45
2023-05-13T23:02:14.889Z,13.93
2023-05-13T23:04:43.513Z,13.75
2023-05-13T23:07:12.093Z,13.68
2023-05-13T23:09:40.760Z,14.38
2023-05-13T23:12:09.425Z,15.18
2023-05-13T23:14:38.016Z,12.10
2023-05-13T23:17:06.679Z,13.03
2023-05-13T23:19:35.322Z,15.15
2023-05-13T23:22:03.884Z,20.20
2023-05-13T23:24:32.546Z,23.92
2023-05-13T23:27:01.172Z,16.05
2023-05-13T23:29:29.795Z,17.42
2023-05-13T23:31:58.498Z,17.17
2023-05-13T23:34:27.187Z,13.45
2023-05-13T23:36:55.809Z,12.80
2023-05-13T23:39:24.488Z,20.25
2023-05-13T23:41:53.092Z,18.05
2023-05-13T23:44:21.716Z,27.62
2023-05-13T23:46:50.418Z,28.95
2023-05-13T23:49:19.000Z,22.48
2023-05-13T23:51:47.591Z,23.87
2023-05-13T23:54:16.585Z,20.62
2023-05-13T23:56:45.160Z,21.15
2023-05-13T23:59:13.757Z,18.87
